sensor_id;sensor_type;location;lat;lon;timestamp;temperature;humidity
64924;HTU21D;51436;44.692;39.214;2022-08-11T00:00:08;23.43;68.91
64924;HTU21D;51436;44.692;39.214;2022-08-11T00:02:39;23.45;69.04
64924;HTU21D;51436;44.692;39.214;2022-08-11T00:05:09;23.43;69.07
64924;HTU21D;51436;44.692;39.214;2022-08-11T00:08:02;23.41;68.87
64924;HTU21D;51436;44.692;39.214;2022-08-11T00:10:29;23.38;69.23
64924;HTU21D;51436;44.692;39.214;2022-08-11T00:13:00;23.35;69.21
64924;HTU21D;51436;44.692;39.214;2022-08-11T00:15:38;23.34;69.15
64924;HTU21D;51436;44.692;39.214;2022-08-11T00:18:05;23.29;69.45
64924;HTU21D;51436;44.692;39.214;2022-08-11T00:20:34;23.24;69.57
64924;HTU21D;51436;44.692;39.214;2022-08-11T00:23:19;23.26;69.30
64924;HTU21D;51436;44.692;39.214;2022-08-11T00:25:48;23.25;69.54
64924;HTU21D;51436;44.692;39.214;2022-08-11T00:28:31;23.22;69.45
64924;HTU21D;51436;44.692;39.214;2022-08-11T00:31:02;23.15;69.80
64924;HTU21D;51436;44.692;39.214;2022-08-11T00:33:38;23.13;69.79
64924;HTU21D;51436;44.692;39.214;2022-08-11T00:36:07;23.14;69.84
64924;HTU21D;51436;44.692;39.214;2022-08-11T00:38:39;23.13;69.81
64924;HTU21D;51436;44.692;39.214;2022-08-11T00:44:11;23.14;69.58
64924;HTU21D;51436;44.692;39.214;2022-08-11T00:47:41;23.14;69.44
64924;HTU21D;51436;44.692;39.214;2022-08-11T01:01:42;23.08;69.49
64924;HTU21D;51436;44.692;39.214;2022-08-11T01:07:34;23.11;69.34
64924;HTU21D;51436;44.692;39.214;2022-08-11T01:22:50;22.98;69.16
64924;HTU21D;51436;44.692;39.214;2022-08-11T01:28:30;23.01;69.29
64924;HTU21D;51436;44.692;39.214;2022-08-11T01:31:36;23.03;69.29
64924;HTU21D;51436;44.692;39.214;2022-08-11T01:39:55;23.00;69.57
64924;HTU21D;51436;44.692;39.214;2022-08-11T01:45:56;22.94;69.75
64924;HTU21D;51436;44.692;39.214;2022-08-11T01:48:48;22.91;69.87
64924;HTU21D;51436;44.692;39.214;2022-08-11T01:51:37;22.87;70.25
64924;HTU21D;51436;44.692;39.214;2022-08-11T01:56:56;22.86;70.30
64924;HTU21D;51436;44.692;39.214;2022-08-11T01:59:25;22.88;70.55
64924;HTU21D;51436;44.692;39.214;2022-08-11T02:04:58;22.93;70.49
64924;HTU21D;51436;44.692;39.214;2022-08-11T02:07:57;22.92;70.42
64924;HTU21D;51436;44.692;39.214;2022-08-11T02:13:23;22.98;70.67
64924;HTU21D;51436;44.692;39.214;2022-08-11T02:18:55;22.99;70.52
64924;HTU21D;51436;44.692;39.214;2022-08-11T02:22:01;22.98;70.56
64924;HTU21D;51436;44.692;39.214;2022-08-11T02:25:04;22.95;70.56
64924;HTU21D;51436;44.692;39.214;2022-08-11T02:27:44;22.96;70.59
64924;HTU21D;51436;44.692;39.214;2022-08-11T02:30:16;22.97;70.71
64924;HTU21D;51436;44.692;39.214;2022-08-11T02:36:21;23.11;70.32
64924;HTU21D;51436;44.692;39.214;2022-08-11T02:39:07;23.15;70.31
64924;HTU21D;51436;44.692;39.214;2022-08-11T02:54:14;24.08;68.23
64924;HTU21D;51436;44.692;39.214;2022-08-11T02:59:40;23.84;68.93
64924;HTU21D;51436;44.692;39.214;2022-08-11T03:05:25;23.52;69.92
64924;HTU21D;51436;44.692;39.214;2022-08-11T03:08:12;23.42;70.13
64924;HTU21D;51436;44.692;39.214;2022-08-11T03:11:38;23.38;70.34
64924;HTU21D;51436;44.692;39.214;2022-08-11T03:14:16;23.29;70.44
64924;HTU21D;51436;44.692;39.214;2022-08-11T03:22:51;23.24;70.59
64924;HTU21D;51436;44.692;39.214;2022-08-11T03:25:33;23.25;70.71
64924;HTU21D;51436;44.692;39.214;2022-08-11T03:33:53;23.26;70.98
64924;HTU21D;51436;44.692;39.214;2022-08-11T03:50:02;23.46;70.96
64924;HTU21D;51436;44.692;39.214;2022-08-11T04:06:30;23.67;71.05
64924;HTU21D;51436;44.692;39.214;2022-08-11T04:09:40;23.75;70.94
64924;HTU21D;51436;44.692;39.214;2022-08-11T04:27:26;24.09;70.67
64924;HTU21D;51436;44.692;39.214;2022-08-11T04:36:09;24.04;71.03
64924;HTU21D;51436;44.692;39.214;2022-08-11T04:45:09;24.03;71.39
64924;HTU21D;51436;44.692;39.214;2022-08-11T04:54:20;24.00;71.49
64924;HTU21D;51436;44.692;39.214;2022-08-11T05:00:25;24.04;71.79
64924;HTU21D;51436;44.692;39.214;2022-08-11T05:03:44;24.05;71.64
64924;HTU21D;51436;44.692;39.214;2022-08-11T05:09:27;24.05;71.80
64924;HTU21D;51436;44.692;39.214;2022-08-11T05:14:52;24.03;72.19
64924;HTU21D;51436;44.692;39.214;2022-08-11T05:17:43;24.02;72.44
64924;HTU21D;51436;44.692;39.214;2022-08-11T05:20:28;24.02;72.51
64924;HTU21D;51436;44.692;39.214;2022-08-11T05:23:15;24.02;72.59
64924;HTU21D;51436;44.692;39.214;2022-08-11T05:26:04;24.00;72.56
64924;HTU21D;51436;44.692;39.214;2022-08-11T05:28:55;24.03;72.49
64924;HTU21D;51436;44.692;39.214;2022-08-11T05:31:48;24.08;72.38
64924;HTU21D;51436;44.692;39.214;2022-08-11T05:34:50;24.13;72.21
64924;HTU21D;51436;44.692;39.214;2022-08-11T05:39:52;24.19;72.38
64924;HTU21D;51436;44.692;39.214;2022-08-11T05:42:43;24.23;72.27
64924;HTU21D;51436;44.692;39.214;2022-08-11T05:45:32;24.24;71.64
64924;HTU21D;51436;44.692;39.214;2022-08-11T05:48:18;24.31;71.97
64924;HTU21D;51436;44.692;39.214;2022-08-11T05:51:04;24.39;71.93
64924;HTU21D;51436;44.692;39.214;2022-08-11T05:53:52;24.47;71.79
64924;HTU21D;51436;44.692;39.214;2022-08-11T05:56:48;24.55;71.33
64924;HTU21D;51436;44.692;39.214;2022-08-11T05:59:17;24.59;71.23
64924;HTU21D;51436;44.692;39.214;2022-08-11T06:01:45;24.64;71.34
64924;HTU21D;51436;44.692;39.214;2022-08-11T06:04:19;24.72;71.07
64924;HTU21D;51436;44.692;39.214;2022-08-11T06:06:58;24.77;70.75
64924;HTU21D;51436;44.692;39.214;2022-08-11T06:09:30;24.84;70.57
64924;HTU21D;51436;44.692;39.214;2022-08-11T06:12:05;24.90;70.35
64924;HTU21D;51436;44.692;39.214;2022-08-11T06:14:35;24.97;70.00
64924;HTU21D;51436;44.692;39.214;2022-08-11T06:17:08;25.02;70.10
64924;HTU21D;51436;44.692;39.214;2022-08-11T06:19:37;25.05;70.19
64924;HTU21D;51436;44.692;39.214;2022-08-11T06:22:07;25.10;70.31
64924;HTU21D;51436;44.692;39.214;2022-08-11T06:24:36;25.09;70.47
64924;HTU21D;51436;44.692;39.214;2022-08-11T06:27:04;25.07;70.68
64924;HTU21D;51436;44.692;39.214;2022-08-11T06:29:34;25.07;70.93
64924;HTU21D;51436;44.692;39.214;2022-08-11T06:32:05;25.06;71.09
64924;HTU21D;51436;44.692;39.214;2022-08-11T06:39:51;25.06;71.19
64924;HTU21D;51436;44.692;39.214;2022-08-11T06:42:49;25.05;71.24
64924;HTU21D;51436;44.692;39.214;2022-08-11T06:45:34;25.03;71.36
64924;HTU21D;51436;44.692;39.214;2022-08-11T06:48:03;25.01;71.74
64924;HTU21D;51436;44.692;39.214;2022-08-11T06:50:32;25.01;71.89
64924;HTU21D;51436;44.692;39.214;2022-08-11T06:53:18;25.04;71.93
64924;HTU21D;51436;44.692;39.214;2022-08-11T06:55:47;25.05;72.02
64924;HTU21D;51436;44.692;39.214;2022-08-11T06:58:36;25.05;72.11
64924;HTU21D;51436;44.692;39.214;2022-08-11T07:01:32;25.03;71.94
64924;HTU21D;51436;44.692;39.214;2022-08-11T07:04:31;25.04;72.04
64924;HTU21D;51436;44.692;39.214;2022-08-11T07:13:13;25.12;72.22
64924;HTU21D;51436;44.692;39.214;2022-08-11T07:16:00;25.12;72.37
64924;HTU21D;51436;44.692;39.214;2022-08-11T07:18:30;25.13;72.43
64924;HTU21D;51436;44.692;39.214;2022-08-11T07:21:36;25.05;72.25
64924;HTU21D;51436;44.692;39.214;2022-08-11T07:24:28;25.00;72.54
64924;HTU21D;51436;44.692;39.214;2022-08-11T07:27:35;25.02;72.45
64924;HTU21D;51436;44.692;39.214;2022-08-11T07:30:21;25.07;72.29
64924;HTU21D;51436;44.692;39.214;2022-08-11T07:32:51;25.13;72.11
64924;HTU21D;51436;44.692;39.214;2022-08-11T07:35:27;25.18;71.93
64924;HTU21D;51436;44.692;39.214;2022-08-11T07:37:58;25.20;71.84
64924;HTU21D;51436;44.692;39.214;2022-08-11T07:40:25;25.22;71.73
64924;HTU21D;51436;44.692;39.214;2022-08-11T07:42:53;25.25;71.74
64924;HTU21D;51436;44.692;39.214;2022-08-11T07:45:21;25.27;71.71
64924;HTU21D;51436;44.692;39.214;2022-08-11T07:48:07;25.31;71.73
64924;HTU21D;51436;44.692;39.214;2022-08-11T07:50:53;25.34;71.92
64924;HTU21D;51436;44.692;39.214;2022-08-11T07:53:39;25.37;71.74
64924;HTU21D;51436;44.692;39.214;2022-08-11T07:56:06;25.45;71.57
64924;HTU21D;51436;44.692;39.214;2022-08-11T07:58:35;25.47;71.29
64924;HTU21D;51436;44.692;39.214;2022-08-11T08:01:22;25.46;71.33
64924;HTU21D;51436;44.692;39.214;2022-08-11T08:04:09;25.46;71.44
64924;HTU21D;51436;44.692;39.214;2022-08-11T08:06:56;25.52;71.52
64924;HTU21D;51436;44.692;39.214;2022-08-11T08:09:43;25.53;71.59
64924;HTU21D;51436;44.692;39.214;2022-08-11T08:12:29;25.56;71.32
64924;HTU21D;51436;44.692;39.214;2022-08-11T08:15:15;25.61;70.94
64924;HTU21D;51436;44.692;39.214;2022-08-11T08:18:03;25.68;70.68
64924;HTU21D;51436;44.692;39.214;2022-08-11T08:20:39;25.76;70.50
64924;HTU21D;51436;44.692;39.214;2022-08-11T08:23:08;25.83;70.19
64924;HTU21D;51436;44.692;39.214;2022-08-11T08:25:38;25.87;69.98
64924;HTU21D;51436;44.692;39.214;2022-08-11T08:28:14;25.89;69.87
64924;HTU21D;51436;44.692;39.214;2022-08-11T08:30:42;25.95;70.01
64924;HTU21D;51436;44.692;39.214;2022-08-11T08:33:26;26.05;69.74
64924;HTU21D;51436;44.692;39.214;2022-08-11T08:35:55;26.17;69.28
64924;HTU21D;51436;44.692;39.214;2022-08-11T08:38:53;26.31;68.61
64924;HTU21D;51436;44.692;39.214;2022-08-11T08:41:23;26.45;67.67
64924;HTU21D;51436;44.692;39.214;2022-08-11T08:43:53;26.52;67.43
64924;HTU21D;51436;44.692;39.214;2022-08-11T08:46:25;26.67;67.14
64924;HTU21D;51436;44.692;39.214;2022-08-11T08:48:53;26.92;66.62
64924;HTU21D;51436;44.692;39.214;2022-08-11T08:51:20;27.16;66.05
64924;HTU21D;51436;44.692;39.214;2022-08-11T08:54:16;27.32;65.66
64924;HTU21D;51436;44.692;39.214;2022-08-11T08:56:45;27.44;65.46
64924;HTU21D;51436;44.692;39.214;2022-08-11T08:59:13;27.58;64.93
64924;HTU21D;51436;44.692;39.214;2022-08-11T09:01:54;27.58;64.91
64924;HTU21D;51436;44.692;39.214;2022-08-11T09:04:23;27.60;64.36
64924;HTU21D;51436;44.692;39.214;2022-08-11T09:06:50;27.64;64.14
64924;HTU21D;51436;44.692;39.214;2022-08-11T09:09:19;27.68;63.45
64924;HTU21D;51436;44.692;39.214;2022-08-11T09:11:47;27.75;63.13
64924;HTU21D;51436;44.692;39.214;2022-08-11T09:14:27;27.85;62.76
64924;HTU21D;51436;44.692;39.214;2022-08-11T09:17:17;27.88;62.53
64924;HTU21D;51436;44.692;39.214;2022-08-11T09:19:55;27.95;62.53
64924;HTU21D;51436;44.692;39.214;2022-08-11T09:22:31;28.02;62.12
64924;HTU21D;51436;44.692;39.214;2022-08-11T09:25:21;28.03;61.73
64924;HTU21D;51436;44.692;39.214;2022-08-11T09:28:10;28.05;61.92
64924;HTU21D;51436;44.692;39.214;2022-08-11T09:30:41;28.11;61.78
64924;HTU21D;51436;44.692;39.214;2022-08-11T09:33:10;28.08;61.60
64924;HTU21D;51436;44.692;39.214;2022-08-11T09:35:39;28.15;61.25
64924;HTU21D;51436;44.692;39.214;2022-08-11T09:38:12;28.25;60.57
64924;HTU21D;51436;44.692;39.214;2022-08-11T09:41:05;28.35;60.38
64924;HTU21D;51436;44.692;39.214;2022-08-11T09:43:37;28.45;60.01
64924;HTU21D;51436;44.692;39.214;2022-08-11T09:46:25;28.49;59.63
64924;HTU21D;51436;44.692;39.214;2022-08-11T09:48:53;28.49;59.64
64924;HTU21D;51436;44.692;39.214;2022-08-11T09:51:22;28.57;59.53
64924;HTU21D;51436;44.692;39.214;2022-08-11T09:53:52;28.64;59.41
64924;HTU21D;51436;44.692;39.214;2022-08-11T09:56:22;28.77;59.41
64924;HTU21D;51436;44.692;39.214;2022-08-11T09:59:08;28.88;58.81
64924;HTU21D;51436;44.692;39.214;2022-08-11T10:01:42;28.82;59.17
64924;HTU21D;51436;44.692;39.214;2022-08-11T10:04:21;28.83;58.77
64924;HTU21D;51436;44.692;39.214;2022-08-11T10:06:52;28.89;58.63
64924;HTU21D;51436;44.692;39.214;2022-08-11T10:12:16;29.00;58.30
64924;HTU21D;51436;44.692;39.214;2022-08-11T10:14:48;29.01;58.27
64924;HTU21D;51436;44.692;39.214;2022-08-11T10:17:59;29.11;58.11
64924;HTU21D;51436;44.692;39.214;2022-08-11T10:20:47;29.13;57.78
64924;HTU21D;51436;44.692;39.214;2022-08-11T10:23:35;29.15;57.62
64924;HTU21D;51436;44.692;39.214;2022-08-11T10:26:23;29.19;57.34
64924;HTU21D;51436;44.692;39.214;2022-08-11T10:29:10;29.26;57.39
64924;HTU21D;51436;44.692;39.214;2022-08-11T10:31:56;29.30;56.97
64924;HTU21D;51436;44.692;39.214;2022-08-11T10:34:44;29.33;56.97
64924;HTU21D;51436;44.692;39.214;2022-08-11T10:37:11;29.37;56.81
64924;HTU21D;51436;44.692;39.214;2022-08-11T10:39:40;29.44;56.84
64924;HTU21D;51436;44.692;39.214;2022-08-11T10:42:08;29.52;56.42
64924;HTU21D;51436;44.692;39.214;2022-08-11T10:44:56;29.52;56.00
64924;HTU21D;51436;44.692;39.214;2022-08-11T10:47:24;29.63;55.68
64924;HTU21D;51436;44.692;39.214;2022-08-11T10:52:48;29.80;55.65
64924;HTU21D;51436;44.692;39.214;2022-08-11T10:55:37;29.75;55.34
64924;HTU21D;51436;44.692;39.214;2022-08-11T10:58:23;29.63;55.55
64924;HTU21D;51436;44.692;39.214;2022-08-11T11:01:09;29.51;55.81
64924;HTU21D;51436;44.692;39.214;2022-08-11T11:03:36;29.43;55.58
64924;HTU21D;51436;44.692;39.214;2022-08-11T11:08:56;29.48;55.80
64924;HTU21D;51436;44.692;39.214;2022-08-11T11:11:29;29.58;55.56
64924;HTU21D;51436;44.692;39.214;2022-08-11T11:14:18;29.71;55.30
64924;HTU21D;51436;44.692;39.214;2022-08-11T11:17:04;29.81;54.87
64924;HTU21D;51436;44.692;39.214;2022-08-11T11:19:38;29.92;54.68
64924;HTU21D;51436;44.692;39.214;2022-08-11T11:22:05;29.96;54.46
64924;HTU21D;51436;44.692;39.214;2022-08-11T11:25:21;29.90;54.56
64924;HTU21D;51436;44.692;39.214;2022-08-11T11:27:58;29.82;54.72
64924;HTU21D;51436;44.692;39.214;2022-08-11T11:39:10;29.82;53.84
64924;HTU21D;51436;44.692;39.214;2022-08-11T11:41:36;29.85;53.71
64924;HTU21D;51436;44.692;39.214;2022-08-11T11:44:03;29.88;53.67
64924;HTU21D;51436;44.692;39.214;2022-08-11T11:46:30;30.04;53.43
64924;HTU21D;51436;44.692;39.214;2022-08-11T11:48:58;30.23;52.70
64924;HTU21D;51436;44.692;39.214;2022-08-11T11:51:32;30.35;52.81
64924;HTU21D;51436;44.692;39.214;2022-08-11T11:53:59;30.38;52.29
64924;HTU21D;51436;44.692;39.214;2022-08-11T11:56:28;30.38;52.47
64924;HTU21D;51436;44.692;39.214;2022-08-11T11:58:55;30.37;52.37
64924;HTU21D;51436;44.692;39.214;2022-08-11T12:01:41;30.37;52.38
64924;HTU21D;51436;44.692;39.214;2022-08-11T12:04:11;30.36;52.57
64924;HTU21D;51436;44.692;39.214;2022-08-11T12:06:39;30.38;52.38
64924;HTU21D;51436;44.692;39.214;2022-08-11T12:09:06;30.40;52.39
64924;HTU21D;51436;44.692;39.214;2022-08-11T12:11:33;30.41;51.89
64924;HTU21D;51436;44.692;39.214;2022-08-11T12:14:19;30.47;51.62
64924;HTU21D;51436;44.692;39.214;2022-08-11T12:16:46;30.44;51.73
64924;HTU21D;51436;44.692;39.214;2022-08-11T12:19:15;30.44;51.75
64924;HTU21D;51436;44.692;39.214;2022-08-11T12:21:43;30.46;51.01
64924;HTU21D;51436;44.692;39.214;2022-08-11T12:24:30;30.47;51.36
64924;HTU21D;51436;44.692;39.214;2022-08-11T12:27:16;30.46;51.17
64924;HTU21D;51436;44.692;39.214;2022-08-11T12:29:50;30.42;51.46
64924;HTU21D;51436;44.692;39.214;2022-08-11T12:32:18;30.41;51.79
64924;HTU21D;51436;44.692;39.214;2022-08-11T12:34:46;30.41;51.43
64924;HTU21D;51436;44.692;39.214;2022-08-11T12:37:15;30.44;51.42
64924;HTU21D;51436;44.692;39.214;2022-08-11T12:39:50;30.42;51.40
64924;HTU21D;51436;44.692;39.214;2022-08-11T12:42:36;30.44;51.23
64924;HTU21D;51436;44.692;39.214;2022-08-11T12:45:25;30.45;51.04
64924;HTU21D;51436;44.692;39.214;2022-08-11T12:48:14;30.34;51.43
64924;HTU21D;51436;44.692;39.214;2022-08-11T12:51:08;30.21;51.94
64924;HTU21D;51436;44.692;39.214;2022-08-11T12:54:00;30.07;52.19
64924;HTU21D;51436;44.692;39.214;2022-08-11T12:56:37;29.98;52.27
64924;HTU21D;51436;44.692;39.214;2022-08-11T12:59:24;29.96;52.15
64924;HTU21D;51436;44.692;39.214;2022-08-11T13:02:15;29.91;52.30
64924;HTU21D;51436;44.692;39.214;2022-08-11T13:05:02;29.82;52.40
64924;HTU21D;51436;44.692;39.214;2022-08-11T13:07:31;29.73;52.47
64924;HTU21D;51436;44.692;39.214;2022-08-11T13:10:00;29.62;52.50
64924;HTU21D;51436;44.692;39.214;2022-08-11T13:12:29;29.53;52.63
64924;HTU21D;51436;44.692;39.214;2022-08-11T13:15:20;29.49;52.87
64924;HTU21D;51436;44.692;39.214;2022-08-11T13:17:53;29.43;53.09
64924;HTU21D;51436;44.692;39.214;2022-08-11T13:20:22;29.43;53.36
64924;HTU21D;51436;44.692;39.214;2022-08-11T13:22:51;29.45;53.46
64924;HTU21D;51436;44.692;39.214;2022-08-11T13:25:20;29.50;53.44
64924;HTU21D;51436;44.692;39.214;2022-08-11T13:27:48;29.57;53.48
64924;HTU21D;51436;44.692;39.214;2022-08-11T13:30:16;29.68;53.04
64924;HTU21D;51436;44.692;39.214;2022-08-11T13:33:03;29.77;52.76
64924;HTU21D;51436;44.692;39.214;2022-08-11T13:35:30;29.85;53.06
64924;HTU21D;51436;44.692;39.214;2022-08-11T13:38:00;29.92;52.50
64924;HTU21D;51436;44.692;39.214;2022-08-11T13:40:28;29.95;52.48
64924;HTU21D;51436;44.692;39.214;2022-08-11T13:42:55;29.98;52.49
64924;HTU21D;51436;44.692;39.214;2022-08-11T13:45:25;30.01;51.85
64924;HTU21D;51436;44.692;39.214;2022-08-11T13:47:54;30.03;51.65
64924;HTU21D;51436;44.692;39.214;2022-08-11T13:50:23;30.04;51.62
64924;HTU21D;51436;44.692;39.214;2022-08-11T13:53:10;30.06;51.49
64924;HTU21D;51436;44.692;39.214;2022-08-11T13:55:41;30.04;51.22
64924;HTU21D;51436;44.692;39.214;2022-08-11T13:58:11;30.05;51.12
64924;HTU21D;51436;44.692;39.214;2022-08-11T14:00:39;30.04;51.01
64924;HTU21D;51436;44.692;39.214;2022-08-11T14:03:10;30.03;50.94
64924;HTU21D;51436;44.692;39.214;2022-08-11T14:05:45;30.06;51.24
64924;HTU21D;51436;44.692;39.214;2022-08-11T14:08:17;30.05;51.02
64924;HTU21D;51436;44.692;39.214;2022-08-11T14:10:47;30.03;51.14
64924;HTU21D;51436;44.692;39.214;2022-08-11T14:13:36;30.03;51.08
64924;HTU21D;51436;44.692;39.214;2022-08-11T14:16:10;30.02;51.17
64924;HTU21D;51436;44.692;39.214;2022-08-11T14:18:42;30.01;51.24
64924;HTU21D;51436;44.692;39.214;2022-08-11T14:21:13;29.97;51.57
64924;HTU21D;51436;44.692;39.214;2022-08-11T14:23:59;29.98;51.31
64924;HTU21D;51436;44.692;39.214;2022-08-11T14:26:28;29.97;51.13
64924;HTU21D;51436;44.692;39.214;2022-08-11T14:29:06;29.96;51.17
64924;HTU21D;51436;44.692;39.214;2022-08-11T14:31:37;29.95;51.19
64924;HTU21D;51436;44.692;39.214;2022-08-11T14:34:05;29.92;51.29
64924;HTU21D;51436;44.692;39.214;2022-08-11T14:36:39;29.90;51.37
64924;HTU21D;51436;44.692;39.214;2022-08-11T14:39:13;29.89;51.29
64924;HTU21D;51436;44.692;39.214;2022-08-11T14:41:53;29.89;51.31
64924;HTU21D;51436;44.692;39.214;2022-08-11T14:44:45;29.83;51.11
64924;HTU21D;51436;44.692;39.214;2022-08-11T14:47:33;29.80;51.25
64924;HTU21D;51436;44.692;39.214;2022-08-11T14:50:02;29.76;51.11
64924;HTU21D;51436;44.692;39.214;2022-08-11T14:52:31;29.76;51.14
64924;HTU21D;51436;44.692;39.214;2022-08-11T14:54:58;29.74;51.27
64924;HTU21D;51436;44.692;39.214;2022-08-11T14:57:43;29.71;50.88
64924;HTU21D;51436;44.692;39.214;2022-08-11T15:00:13;29.68;50.80
64924;HTU21D;51436;44.692;39.214;2022-08-11T15:02:45;29.67;50.73
64924;HTU21D;51436;44.692;39.214;2022-08-11T15:05:32;29.63;50.60
64924;HTU21D;51436;44.692;39.214;2022-08-11T15:07:59;29.61;50.71
64924;HTU21D;51436;44.692;39.214;2022-08-11T15:10:26;29.56;50.72
64924;HTU21D;51436;44.692;39.214;2022-08-11T15:12:53;29.50;50.56
64924;HTU21D;51436;44.692;39.214;2022-08-11T15:15:20;29.48;50.56
64924;HTU21D;51436;44.692;39.214;2022-08-11T15:18:07;29.45;50.72
64924;HTU21D;51436;44.692;39.214;2022-08-11T15:20:35;29.43;51.45
64924;HTU21D;51436;44.692;39.214;2022-08-11T15:23:20;29.39;52.20
64924;HTU21D;51436;44.692;39.214;2022-08-11T15:26:12;29.38;52.67
64924;HTU21D;51436;44.692;39.214;2022-08-11T15:28:46;29.36;53.65
64924;HTU21D;51436;44.692;39.214;2022-08-11T15:31:32;29.34;54.64
64924;HTU21D;51436;44.692;39.214;2022-08-11T15:34:20;29.30;55.58
64924;HTU21D;51436;44.692;39.214;2022-08-11T15:37:07;29.28;56.56
64924;HTU21D;51436;44.692;39.214;2022-08-11T15:42:59;29.18;57.90
64924;HTU21D;51436;44.692;39.214;2022-08-11T15:45:47;29.14;58.67
64924;HTU21D;51436;44.692;39.214;2022-08-11T15:51:10;29.04;59.47
64924;HTU21D;51436;44.692;39.214;2022-08-11T15:53:41;28.97;60.57
64924;HTU21D;51436;44.692;39.214;2022-08-11T15:56:11;28.87;61.28
64924;HTU21D;51436;44.692;39.214;2022-08-11T15:58:41;28.80;61.70
64924;HTU21D;51436;44.692;39.214;2022-08-11T16:01:29;28.72;62.27
64924;HTU21D;51436;44.692;39.214;2022-08-11T16:04:17;28.64;62.56
64924;HTU21D;51436;44.692;39.214;2022-08-11T16:06:59;28.58;62.88
64924;HTU21D;51436;44.692;39.214;2022-08-11T16:09:36;28.52;63.11
64924;HTU21D;51436;44.692;39.214;2022-08-11T16:12:07;28.46;63.50
64924;HTU21D;51436;44.692;39.214;2022-08-11T16:14:38;28.42;63.89
64924;HTU21D;51436;44.692;39.214;2022-08-11T16:17:25;28.34;64.07
64924;HTU21D;51436;44.692;39.214;2022-08-11T16:19:55;28.29;64.63
64924;HTU21D;51436;44.692;39.214;2022-08-11T16:22:29;28.26;64.74
64924;HTU21D;51436;44.692;39.214;2022-08-11T16:25:11;28.20;65.27
64924;HTU21D;51436;44.692;39.214;2022-08-11T16:27:41;28.15;65.67
64924;HTU21D;51436;44.692;39.214;2022-08-11T16:30:09;28.09;66.17
64924;HTU21D;51436;44.692;39.214;2022-08-11T16:32:38;28.01;66.48
64924;HTU21D;51436;44.692;39.214;2022-08-11T16:35:10;27.93;66.88
64924;HTU21D;51436;44.692;39.214;2022-08-11T16:37:56;27.78;67.59
64924;HTU21D;51436;44.692;39.214;2022-08-11T16:40:42;27.68;68.03
64924;HTU21D;51436;44.692;39.214;2022-08-11T16:43:14;27.64;68.26
64924;HTU21D;51436;44.692;39.214;2022-08-11T16:46:03;27.55;68.52
64924;HTU21D;51436;44.692;39.214;2022-08-11T16:48:49;27.51;68.82
64924;HTU21D;51436;44.692;39.214;2022-08-11T16:51:18;27.43;68.99
64924;HTU21D;51436;44.692;39.214;2022-08-11T16:53:49;27.39;69.13
64924;HTU21D;51436;44.692;39.214;2022-08-11T16:56:19;27.35;69.16
64924;HTU21D;51436;44.692;39.214;2022-08-11T16:58:51;27.28;69.44
64924;HTU21D;51436;44.692;39.214;2022-08-11T17:01:37;27.20;69.55
64924;HTU21D;51436;44.692;39.214;2022-08-11T17:04:10;27.15;69.74
64924;HTU21D;51436;44.692;39.214;2022-08-11T17:06:56;27.09;70.07
64924;HTU21D;51436;44.692;39.214;2022-08-11T17:09:41;27.07;70.25
64924;HTU21D;51436;44.692;39.214;2022-08-11T17:12:31;27.04;70.23
64924;HTU21D;51436;44.692;39.214;2022-08-11T17:15:18;26.99;70.39
64924;HTU21D;51436;44.692;39.214;2022-08-11T17:18:05;26.94;70.58
64924;HTU21D;51436;44.692;39.214;2022-08-11T17:20:32;26.91;70.88
64924;HTU21D;51436;44.692;39.214;2022-08-11T17:23:00;26.84;71.10
64924;HTU21D;51436;44.692;39.214;2022-08-11T17:25:46;26.84;71.14
64924;HTU21D;51436;44.692;39.214;2022-08-11T17:28:16;26.84;71.19
64924;HTU21D;51436;44.692;39.214;2022-08-11T17:30:44;26.82;71.27
64924;HTU21D;51436;44.692;39.214;2022-08-11T17:33:31;26.80;71.33
64924;HTU21D;51436;44.692;39.214;2022-08-11T17:36:17;26.77;71.48
64924;HTU21D;51436;44.692;39.214;2022-08-11T17:38:46;26.76;71.54
64924;HTU21D;51436;44.692;39.214;2022-08-11T17:41:15;26.73;71.71
64924;HTU21D;51436;44.692;39.214;2022-08-11T17:44:00;26.71;71.78
64924;HTU21D;51436;44.692;39.214;2022-08-11T17:46:46;26.69;71.80
64924;HTU21D;51436;44.692;39.214;2022-08-11T17:49:33;26.68;71.88
64924;HTU21D;51436;44.692;39.214;2022-08-11T17:52:04;26.63;71.96
64924;HTU21D;51436;44.692;39.214;2022-08-11T17:54:52;26.61;72.04
64924;HTU21D;51436;44.692;39.214;2022-08-11T17:57:38;26.58;72.09
64924;HTU21D;51436;44.692;39.214;2022-08-11T18:00:24;26.56;72.14
64924;HTU21D;51436;44.692;39.214;2022-08-11T18:02:52;26.56;72.17
64924;HTU21D;51436;44.692;39.214;2022-08-11T18:05:41;26.53;72.07
64924;HTU21D;51436;44.692;39.214;2022-08-11T18:08:11;26.50;72.25
64924;HTU21D;51436;44.692;39.214;2022-08-11T18:10:58;26.46;72.41
64924;HTU21D;51436;44.692;39.214;2022-08-11T18:13:45;26.40;72.51
64924;HTU21D;51436;44.692;39.214;2022-08-11T18:16:31;26.35;72.62
64924;HTU21D;51436;44.692;39.214;2022-08-11T18:19:16;26.34;72.66
64924;HTU21D;51436;44.692;39.214;2022-08-11T18:22:19;26.28;72.48
64924;HTU21D;51436;44.692;39.214;2022-08-11T18:25:09;26.26;72.71
64924;HTU21D;51436;44.692;39.214;2022-08-11T18:27:54;26.27;72.82
64924;HTU21D;51436;44.692;39.214;2022-08-11T18:30:43;26.25;72.83
64924;HTU21D;51436;44.692;39.214;2022-08-11T18:33:35;26.20;72.96
64924;HTU21D;51436;44.692;39.214;2022-08-11T18:36:25;26.17;73.09
64924;HTU21D;51436;44.692;39.214;2022-08-11T18:39:13;26.15;73.19
64924;HTU21D;51436;44.692;39.214;2022-08-11T18:42:14;26.07;73.41
64924;HTU21D;51436;44.692;39.214;2022-08-11T18:45:04;26.06;73.39
64924;HTU21D;51436;44.692;39.214;2022-08-11T18:47:55;26.04;73.48
64924;HTU21D;51436;44.692;39.214;2022-08-11T18:50:43;26.04;73.48
64924;HTU21D;51436;44.692;39.214;2022-08-11T18:53:29;26.03;73.55
64924;HTU21D;51436;44.692;39.214;2022-08-11T18:56:16;26.01;73.65
64924;HTU21D;51436;44.692;39.214;2022-08-11T18:59:03;25.98;73.70
64924;HTU21D;51436;44.692;39.214;2022-08-11T19:01:50;25.99;73.67
64924;HTU21D;51436;44.692;39.214;2022-08-11T19:04:37;25.95;73.77
64924;HTU21D;51436;44.692;39.214;2022-08-11T19:10:45;25.87;73.96
64924;HTU21D;51436;44.692;39.214;2022-08-11T19:13:32;25.84;74.06
64924;HTU21D;51436;44.692;39.214;2022-08-11T19:16:37;25.86;73.76
64924;HTU21D;51436;44.692;39.214;2022-08-11T19:19:26;25.81;74.00
64924;HTU21D;51436;44.692;39.214;2022-08-11T19:22:13;25.79;74.18
64924;HTU21D;51436;44.692;39.214;2022-08-11T19:25:00;25.78;74.20
64924;HTU21D;51436;44.692;39.214;2022-08-11T19:27:46;25.78;74.18
64924;HTU21D;51436;44.692;39.214;2022-08-11T19:30:32;25.78;74.24
64924;HTU21D;51436;44.692;39.214;2022-08-11T19:33:19;25.80;74.15